Time;durP1;ratioP1;P1;durP2;ratioP2;P2;SDS_P1;SDS_P2;PMS_P1;PMS_P2;Temp;Humidity;BMP_temperature;BMP_pressure;BME280_temperature;BME280_humidity;BME280_pressure;Samples;Min_cycle;Max_cycle;Signal;HPM_P1;HPM_P2
2023/02/14 00:00:56;;;;;;;4.70;4.30;;;;;;;3.66;100.00;103047.09;6026961;23;20038;-71
2023/02/14 00:03:23;;;;;;;5.00;4.70;;;;;;;3.81;100.00;103051.66;6065140;18;20700;-73
2023/02/14 00:05:49;;;;;;;5.53;5.03;;;;;;;3.87;100.00;103054.31;6080377;23;20017;-74
2023/02/14 00:08:17;;;;;;;8.77;4.75;;;;;;;3.17;100.00;102934.78;6082619;23;20094;-74
2023/02/14 00:10:43;;;;;;;8.23;4.55;;;;;;;3.83;100.00;103055.13;6089576;23;20271;-73
2023/02/14 00:13:09;;;;;;;6.68;4.45;;;;;;;3.72;100.00;103035.94;6040880;23;20453;-74
2023/02/14 00:15:36;;;;;;;5.85;5.43;;;;;;;3.24;100.00;102975.53;6079318;23;20022;-74
2023/02/14 00:18:03;;;;;;;6.78;4.78;;;;;;;3.53;100.00;103014.03;6060627;23;20027;-74
2023/02/14 00:20:29;;;;;;;5.22;4.93;;;;;;;3.66;100.00;103046.22;6044466;23;20022;-74
2023/02/14 00:22:56;;;;;;;5.35;4.88;;;;;;;3.61;100.00;103048.78;6034366;23;20370;-74
2023/02/14 00:25:22;;;;;;;5.88;4.47;;;;;;;2.83;100.00;102930.78;6057812;23;20276;-74
2023/02/14 00:27:49;;;;;;;5.07;4.68;;;;;;;3.57;100.00;103037.47;6057202;23;20053;-74
2023/02/14 00:30:17;;;;;;;5.30;4.80;;;;;;;3.43;100.00;103018.22;6059507;23;20096;-74
2023/02/14 00:32:43;;;;;;;5.50;5.10;;;;;;;3.43;100.00;103019.91;6068802;23;20220;-74
2023/02/14 00:35:11;;;;;;;5.88;5.10;;;;;;;3.36;100.00;103022.41;6031693;23;20498;-74
2023/02/14 00:37:37;;;;;;;4.32;4.03;;;;;;;3.00;100.00;102961.31;6056574;23;20047;-74
2023/02/14 00:40:05;;;;;;;6.60;5.03;;;;;;;3.50;100.00;103043.41;6059969;23;20511;-74
2023/02/14 00:42:32;;;;;;;9.05;4.45;;;;;;;3.17;100.00;102974.56;6056465;23;20033;-74
2023/02/14 00:44:58;;;;;;;7.28;6.60;;;;;;;3.40;100.00;103011.22;6058306;23;20457;-74
2023/02/14 00:47:25;;;;;;;10.50;5.00;;;;;;;3.18;100.00;102970.25;6059288;23;20421;-74
2023/02/14 00:49:51;;;;;;;4.57;4.28;;;;;;;3.08;100.00;102971.81;6060492;23;20101;-74
2023/02/14 00:52:18;;;;;;;6.38;4.10;;;;;;;3.46;100.00;103028.63;6058277;23;20061;-75
2023/02/14 00:54:46;;;;;;;5.07;4.78;;;;;;;2.46;100.00;102863.66;6053686;23;20292;-73
2023/02/14 00:57:13;;;;;;;4.65;4.43;;;;;;;3.28;100.00;103012.78;6033844;23;20050;-74
2023/02/14 00:59:39;;;;;;;5.38;4.43;;;;;;;2.32;100.00;102871.19;6030628;23;20033;-74
2023/02/14 01:02:06;;;;;;;5.80;5.32;;;;;;;2.59;100.00;102916.59;6085160;23;20043;-75
2023/02/14 01:04:33;;;;;;;5.72;5.00;;;;;;;2.06;100.00;102831.03;6052363;23;20038;-75
2023/02/14 01:06:59;;;;;;;5.40;5.00;;;;;;;2.76;100.00;102961.78;6046648;23;20029;-74
2023/02/14 01:09:25;;;;;;;4.55;4.20;;;;;;;2.91;100.00;102986.25;6039180;23;20257;-74
2023/02/14 01:11:52;;;;;;;4.97;4.47;;;;;;;2.44;100.00;102905.94;6059678;23;20549;-74
2023/02/14 01:14:19;;;;;;;7.15;4.43;;;;;;;2.72;100.00;102970.38;6063502;23;20096;-75
2023/02/14 01:16:45;;;;;;;4.25;4.03;;;;;;;1.54;100.00;102784.34;6050412;23;20331;-74
2023/02/14 01:19:12;;;;;;;5.18;4.88;;;;;;;3.04;100.00;103032.28;6056381;23;20064;-74
2023/02/14 01:21:38;;;;;;;4.43;4.00;;;;;;;3.01;100.00;103032.25;6051322;23;20111;-73
2023/02/14 01:24:09;;;;;;;5.20;4.78;;;;;;;2.78;100.00;102991.22;6024924;23;20034;-74
2023/02/14 01:26:35;;;;;;;4.28;4.07;;;;;;;2.93;100.00;103026.94;6085490;23;20034;-74
2023/02/14 01:29:03;;;;;;;4.45;4.25;;;;;;;2.14;100.00;102889.88;6031128;23;20046;-74
2023/02/14 01:31:33;;;;;;;7.05;4.28;;;;;;;2.19;100.00;102900.34;6084327;23;20379;-74
2023/02/14 01:34:00;;;;;;;5.95;5.38;;;;;;;2.90;100.00;103041.56;6069903;23;20501;-74
2023/02/14 01:36:31;;;;;;;4.57;4.22;;;;;;;1.99;100.00;102890.47;6097938;23;20598;-74
2023/02/14 01:39:02;;;;;;;5.00;4.60;;;;;;;1.61;100.00;102822.44;6072876;23;20028;-75
2023/02/14 01:41:31;;;;;;;4.22;4.00;;;;;;;2.33;100.00;102949.81;6069916;23;20024;-74
2023/02/14 01:44:04;;;;;;;5.57;4.75;;;;;;;2.33;100.00;102958.47;6071866;23;20422;-75
2023/02/14 01:46:34;;;;;;;4.90;4.60;;;;;;;2.58;100.00;102980.50;6068248;23;20421;-76
2023/02/14 01:49:19;;;;;;;5.72;5.32;;;;;;;2.82;100.00;103025.00;6065086;23;20033;-74
2023/02/14 01:51:55;;;;;;;5.40;4.85;;;;;;;2.49;100.00;102975.16;6063187;23;20021;-73
2023/02/14 01:54:24;;;;;;;5.30;4.90;;;;;;;1.94;100.00;102883.47;6040781;23;20054;-75
2023/02/14 01:56:57;;;;;;;4.15;3.85;;;;;;;1.96;100.00;102918.91;6091535;23;20030;-74
2023/02/14 01:59:29;;;;;;;4.43;4.13;;;;;;;2.64;100.00;103004.78;6070623;23;20050;-74
2023/02/14 02:01:56;;;;;;;5.40;5.00;;;;;;;2.11;100.00;102935.59;6078860;23;20118;-74
2023/02/14 02:04:28;;;;;;;5.25;4.75;;;;;;;2.67;100.00;103017.81;6050378;23;20400;-73
2023/02/14 02:07:00;;;;;;;4.78;4.43;;;;;;;2.08;100.00;102931.22;6067830;23;20077;-73
2023/02/14 02:09:32;;;;;;;6.40;4.35;;;;;;;1.65;100.00;102859.63;6071335;23;20121;-74
2023/02/14 02:12:00;;;;;;;3.70;3.50;;;;;;;2.56;100.00;103013.28;6093649;23;20029;-73
2023/02/14 02:14:27;;;;;;;5.45;4.60;;;;;;;2.56;100.00;103012.44;6071991;23;20036;-74
2023/02/14 02:17:08;;;;;;;4.88;4.55;;;;;;;2.58;100.00;103006.41;6099395;23;20699;-74
2023/02/14 02:20:01;;;;;;;5.32;4.82;;;;;;;2.17;100.00;102933.97;6065523;23;20096;-74
2023/02/14 02:22:38;;;;;;;;;;;;;;;1.58;100.00;102833.63;6094820;23;20054;-74
2023/02/14 02:25:23;;;;;;;4.38;4.07;;;;;;;1.97;100.00;102884.41;6063592;23;19918;-73
2023/02/14 02:28:16;;;;;;;4.07;3.85;;;;;;;2.87;100.00;103002.63;6085781;23;20503;-74
2023/02/14 02:31:10;;;;;;;4.82;4.50;;;;;;;2.92;100.00;103001.81;6039945;23;20093;-74
2023/02/14 02:33:49;;;;;;;3.92;3.72;;;;;;;3.03;100.00;103002.03;6099303;23;20121;-74
2023/02/14 02:36:32;;;;;;;5.47;5.03;;;;;;;3.04;100.00;103003.75;6069362;23;20356;-73
2023/02/14 02:39:31;;;;;;;5.90;5.13;;;;;;;3.05;100.00;103005.50;6043275;23;20495;-74
2023/02/14 02:42:25;;;;;;;4.50;4.20;;;;;;;2.92;100.00;102990.59;6074021;23;20480;-74
2023/02/14 02:45:10;;;;;;;4.22;3.95;;;;;;;2.77;100.00;102988.63;6065841;23;20045;-73
2023/02/14 02:48:08;;;;;;;4.90;4.45;;;;;;;2.66;100.00;102984.94;6082663;23;20116;-75
2023/02/14 02:53:37;;;;;;;5.03;4.35;;;;;;;2.71;100.00;102989.38;6060038;23;20052;-74
2023/02/14 02:59:19;;;;;;;4.60;4.32;;;;;;;1.81;100.00;102861.66;6062905;23;20034;-74
2023/02/14 03:01:55;;;;;;;4.78;4.40;;;;;;;2.45;100.00;102990.66;6061792;23;20118;-74
2023/02/14 03:09:57;;;;;;;4.03;3.80;;;;;;;1.83;100.00;102872.06;6115637;23;20616;-74
2023/02/14 03:12:33;;;;;;;9.15;4.57;;;;;;;2.52;100.00;102984.72;6088692;23;20063;-74
2023/02/14 03:15:21;;;;;;;5.13;4.68;;;;;;;2.62;100.00;102985.75;6108886;23;20047;-74
2023/02/14 03:18:06;;;;;;;7.20;4.32;;;;;;;2.59;100.00;102969.28;6088502;23;20479;-74
2023/02/14 03:20:39;;;;;;;4.43;4.13;;;;;;;2.64;100.00;102982.31;6083388;23;20041;-74
2023/02/14 03:23:30;;;;;;;4.70;4.40;;;;;;;2.67;100.00;102986.72;6118919;23;20036;-74
2023/02/14 03:26:06;;;;;;;6.18;5.15;;;;;;;2.67;100.00;102981.53;6080227;23;20050;-74
2023/02/14 03:28:41;;;;;;;3.42;3.33;;;;;;;2.68;100.00;102984.13;6089114;23;20597;-74
2023/02/14 03:31:21;;;;;;;5.22;4.72;;;;;;;2.57;100.00;102952.84;6088063;23;20727;-74
2023/02/14 03:34:12;;;;;;;10.85;5.57;;;;;;;2.03;100.00;102872.44;6079734;23;19998;-74
2023/02/14 03:36:47;;;;;;;4.10;3.90;;;;;;;1.48;100.00;102774.75;6095116;23;20460;-74
2023/02/14 03:39:29;;;;;;;4.93;4.63;;;;;;;2.47;100.00;102942.31;6090222;23;20029;-74
2023/02/14 03:42:27;;;;;;;5.63;5.13;;;;;;;2.11;100.00;102883.78;6112365;23;20034;-74
2023/02/14 03:44:55;;;;;;;5.15;4.75;;;;;;;2.27;100.00;102919.50;6098235;23;20056;-73
2023/02/14 03:47:25;;;;;;;4.75;4.35;;;;;;;2.57;100.00;102955.44;6121475;23;20028;-73
2023/02/14 03:50:00;;;;;;;6.10;5.55;;;;;;;2.71;100.00;102984.19;6093009;23;20063;-73
2023/02/14 03:52:29;;;;;;;3.80;3.55;;;;;;;2.59;100.00;102964.13;6113889;23;20053;-74
2023/02/14 03:54:59;;;;;;;5.00;4.70;;;;;;;2.31;100.00;102942.00;6083751;23;20612;-74
2023/02/14 03:57:32;;;;;;;5.13;4.72;;;;;;;2.43;100.00;102963.81;6110885;23;20046;-73
2023/02/14 03:59:58;;;;;;;7.22;4.88;;;;;;;1.99;100.00;102892.22;6090758;23;20011;-73
2023/02/14 04:02:30;;;;;;;4.80;4.40;;;;;;;2.52;100.00;102990.75;6094654;23;20034;-74
2023/02/14 04:04:59;;;;;;;6.00;3.30;;;;;;;2.47;100.00;102976.84;6088751;23;20030;-73
2023/02/14 04:07:25;;;;;;;5.20;4.70;;;;;;;2.49;100.00;102974.31;6090960;23;20143;-75
2023/02/14 04:09:52;;;;;;;8.15;7.47;;;;;;;1.88;100.00;102873.00;6099628;23;20082;-74
2023/02/14 04:12:19;;;;;;;3.95;3.75;;;;;;;2.39;100.00;102973.25;6088762;23;20021;-73
2023/02/14 04:15:01;;;;;;;4.45;4.13;;;;;;;2.32;100.00;102974.84;6100619;23;20039;-74
2023/02/14 04:20:13;;;;;;;4.55;4.13;;;;;;;1.81;100.00;102903.09;6087371;23;20451;-73
2023/02/14 04:22:40;;;;;;;4.72;4.30;;;;;;;2.17;100.00;102975.44;6096796;23;21382;-74
2023/02/14 04:25:06;;;;;;;5.53;5.15;;;;;;;1.81;100.00;102926.38;6090965;23;20060;-74
2023/02/14 04:27:33;;;;;;;5.38;4.82;;;;;;;2.14;100.00;102954.63;6086347;23;20029;-73
2023/02/14 04:29:59;;;;;;;5.82;5.28;;;;;;;2.24;100.00;102962.59;6084782;23;20025;-73
2023/02/14 04:32:26;;;;;;;5.30;4.90;;;;;;;1.48;100.00;102830.81;6113740;23;20031;-73
2023/02/14 04:34:52;;;;;;;5.47;5.00;;;;;;;1.94;100.00;102905.03;6087721;23;20033;-74
2023/02/14 04:37:19;;;;;;;4.95;4.20;;;;;;;1.43;100.00;102819.50;6098010;23;20029;-74
2023/02/14 04:39:45;;;;;;;4.85;4.22;;;;;;;1.51;100.00;102828.28;6083756;23;20214;-74
2023/02/14 04:42:12;;;;;;;6.88;5.60;;;;;;;1.22;100.00;102768.22;6110130;23;20385;-73
2023/02/14 04:44:39;;;;;;;7.00;6.43;;;;;;;1.75;100.00;102846.88;6083482;23;20029;-74
2023/02/14 04:47:06;;;;;;;7.88;5.55;;;;;;;2.19;100.00;102934.88;6090082;23;20199;-73
2023/02/14 04:49:33;;;;;;;6.75;5.28;;;;;;;2.07;100.00;102907.91;6078201;23;20276;-73
2023/02/14 04:52:00;;;;;;;5.88;5.40;;;;;;;1.99;100.00;102898.25;6086962;23;20243;-74
2023/02/14 04:54:27;;;;;;;5.05;4.55;;;;;;;1.71;100.00;102859.75;6094302;23;20036;-73
2023/02/14 04:56:53;;;;;;;5.28;4.88;;;;;;;1.62;100.00;102863.00;6114084;23;20134;-74
2023/02/14 04:59:22;;;;;;;5.57;5.18;;;;;;;2.10;100.00;102920.88;6084651;23;20022;-73
2023/02/14 05:01:51;;;;;;;6.05;5.45;;;;;;;2.11;100.00;102917.47;6083623;23;20081;-73
2023/02/14 05:04:18;;;;;;;6.10;5.68;;;;;;;2.06;100.00;102925.13;6101894;23;20191;-73
2023/02/14 05:06:44;;;;;;;4.50;4.20;;;;;;;0.70;100.00;102688.78;6085406;23;20035;-74
2023/02/14 05:09:10;;;;;;;4.50;4.22;;;;;;;1.66;100.00;102871.72;6082394;23;20010;-73
2023/02/14 05:11:39;;;;;;;5.03;4.70;;;;;;;1.77;100.00;102877.97;6095898;23;20075;-74
2023/02/14 05:14:06;;;;;;;6.70;6.10;;;;;;;1.54;100.00;102838.69;6086003;23;20235;-73
2023/02/14 05:16:32;;;;;;;5.95;5.45;;;;;;;1.38;100.00;102827.16;6065683;23;20382;-72
2023/02/14 05:18:59;;;;;;;7.93;6.13;;;;;;;1.89;100.00;102901.50;6094740;23;21594;-72
2023/02/14 05:21:26;;;;;;;5.45;4.95;;;;;;;1.84;100.00;102895.34;6084090;23;20510;-73
2023/02/14 05:23:53;;;;;;;4.88;4.47;;;;;;;1.96;100.00;102895.59;6112802;23;20453;-73
2023/02/14 05:26:19;;;;;;;6.25;5.68;;;;;;;1.20;100.00;102768.16;6088998;23;20033;-73
2023/02/14 05:28:46;;;;;;;5.70;4.68;;;;;;;0.78;100.00;102688.91;6086913;23;20456;-73
2023/02/14 05:31:12;;;;;;;5.72;5.05;;;;;;;2.01;100.00;102889.66;6112218;23;20037;-74
2023/02/14 05:33:39;;;;;;;4.57;4.18;;;;;;;1.62;100.00;102833.66;6082843;23;20094;-74
2023/02/14 05:36:06;;;;;;;5.35;4.95;;;;;;;1.54;100.00;102825.75;6075303;23;20029;-74
2023/02/14 05:38:33;;;;;;;6.53;5.40;;;;;;;0.61;100.00;102688.56;6072949;23;20157;-73
2023/02/14 05:41:00;;;;;;;5.50;5.07;;;;;;;1.80;100.00;102890.97;6091218;23;20028;-74
2023/02/14 05:43:27;;;;;;;4.95;4.55;;;;;;;1.73;100.00;102904.66;6111675;23;20042;-73
2023/02/14 05:45:53;;;;;;;4.53;4.28;;;;;;;1.36;100.00;102841.78;6086020;23;20033;-74
2023/02/14 05:48:20;;;;;;;6.03;5.63;;;;;;;1.16;100.00;102794.81;6107994;23;20991;-74
2023/02/14 05:50:47;;;;;;;5.80;4.65;;;;;;;1.55;100.00;102851.66;6086119;23;20057;-74
2023/02/14 05:53:14;;;;;;;5.55;5.15;;;;;;;1.72;100.00;102888.22;6098490;23;20416;-73
2023/02/14 05:55:41;;;;;;;5.28;4.88;;;;;;;0.90;100.00;102734.81;6089644;23;20088;-74
2023/02/14 05:58:08;;;;;;;8.38;5.65;;;;;;;1.18;100.00;102796.63;6116616;23;20260;-74
2023/02/14 06:00:36;;;;;;;6.07;5.55;;;;;;;1.35;100.00;102815.03;6086029;23;20018;-74
2023/02/14 06:03:04;;;;;;;5.75;5.35;;;;;;;1.41;100.00;102839.31;6111904;23;20029;-74
2023/02/14 06:05:31;;;;;;;7.22;4.15;;;;;;;1.01;100.00;102776.41;6085415;23;20625;-73
2023/02/14 06:07:59;;;;;;;5.45;4.95;;;;;;;1.07;100.00;102782.56;6126120;23;20132;-74
2023/02/14 06:10:26;;;;;;;5.80;4.28;;;;;;;1.07;100.00;102782.56;6089767;23;20072;-74
2023/02/14 06:12:53;;;;;;;6.30;4.53;;;;;;;1.61;100.00;102878.53;6113163;23;20021;-74
2023/02/14 06:15:20;;;;;;;9.40;5.30;;;;;;;1.69;100.00;102876.97;6077237;23;20452;-74
2023/02/14 06:17:51;;;;;;;4.88;4.45;;;;;;;1.63;100.00;102867.34;6084935;23;20022;-73
2023/02/14 06:20:18;;;;;;;7.88;4.63;;;;;;;1.55;100.00;102862.03;6083468;23;20015;-74
2023/02/14 06:22:44;;;;;;;5.88;5.43;;;;;;;1.41;100.00;102835.00;6088312;23;20080;-74
2023/02/14 06:25:11;;;;;;;3.88;3.67;;;;;;;1.67;100.00;102863.13;6086766;23;20022;-74
2023/02/14 06:27:39;;;;;;;4.63;4.32;;;;;;;1.48;100.00;102852.38;6084634;23;20278;-73
2023/02/14 06:30:07;;;;;;;7.47;6.75;;;;;;;0.88;100.00;102757.16;6113642;23;20022;-74
2023/02/14 06:32:33;;;;;;;10.88;5.43;;;;;;;1.53;100.00;102868.88;6078676;23;20124;-74
2023/02/14 06:35:00;;;;;;;4.72;4.32;;;;;;;1.11;100.00;102788.69;6087252;23;20031;-74
2023/02/14 06:37:27;;;;;;;4.55;4.18;;;;;;;0.99;100.00;102785.00;6113960;23;20020;-74
2023/02/14 06:39:53;;;;;;;4.68;4.13;;;;;;;1.45;100.00;102873.03;6089635;23;20053;-74
2023/02/14 06:42:20;;;;;;;6.32;5.82;;;;;;;1.23;100.00;102840.66;6090842;23;20017;-74
2023/02/14 06:44:46;;;;;;;6.75;4.57;;;;;;;0.99;100.00;102807.41;6115735;23;20028;-73
2023/02/14 06:47:13;;;;;;;11.48;4.95;;;;;;;1.30;100.00;102855.44;6085718;23;22177;-74
2023/02/14 06:49:39;;;;;;;4.43;4.03;;;;;;;1.44;100.00;102884.19;6120659;23;20693;-74
2023/02/14 06:52:06;;;;;;;5.55;5.00;;;;;;;1.44;100.00;102875.56;6087038;23;20026;-74
2023/02/14 06:54:32;;;;;;;4.68;4.38;;;;;;;1.15;100.00;102843.09;6092747;23;20021;-73
2023/02/14 06:56:59;;;;;;;6.30;5.75;;;;;;;1.39;100.00;102878.06;6097559;23;20041;-71
2023/02/14 06:59:25;;;;;;;7.57;5.63;;;;;;;1.41;100.00;102878.13;6092925;23;20553;-72
2023/02/14 07:01:52;;;;;;;5.97;4.93;;;;;;;1.41;100.00;102876.38;6100949;23;20032;-72
2023/02/14 07:04:21;;;;;;;6.60;5.72;;;;;;;1.05;100.00;102810.13;6095481;23;20128;-72
2023/02/14 07:06:47;;;;;;;6.00;5.45;;;;;;;1.39;100.00;102878.06;6120989;23;20713;-71
2023/02/14 07:09:16;;;;;;;10.52;5.65;;;;;;;1.46;100.00;102866.13;6085823;23;20370;-71
2023/02/14 07:11:44;;;;;;;5.13;4.53;;;;;;;1.37;100.00;102851.31;6096907;23;20044;-72
2023/02/14 07:14:12;;;;;;;4.38;4.07;;;;;;;1.30;100.00;102824.41;6088752;23;20018;-71
2023/02/14 07:16:38;;;;;;;5.05;4.75;;;;;;;1.47;100.00;102850.63;6120695;23;20069;-72
2023/02/14 07:19:05;;;;;;;6.65;6.20;;;;;;;1.62;100.00;102865.59;6094297;23;20043;-70
2023/02/14 07:21:31;;;;;;;5.15;4.65;;;;;;;1.68;100.00;102862.25;6109849;23;20029;-71
2023/02/14 07:23:58;;;;;;;10.55;5.93;;;;;;;1.72;100.00;102864.94;6084666;23;20073;-71
2023/02/14 07:26:25;;;;;;;5.70;5.20;;;;;;;1.70;100.00;102848.50;6089322;23;20017;-71
2023/02/14 07:28:51;;;;;;;4.18;3.90;;;;;;;1.39;100.00;102784.94;6086777;23;20064;-71
2023/02/14 07:31:19;;;;;;;9.18;4.68;;;;;;;1.76;100.00;102860.69;6113851;23;20023;-71
2023/02/14 07:33:46;;;;;;;6.38;5.75;;;;;;;1.83;100.00;102844.44;6092353;23;20018;-71
2023/02/14 07:36:12;;;;;;;6.00;5.60;;;;;;;1.23;100.00;102749.28;6089278;23;20021;-72
2023/02/14 07:38:39;;;;;;;5.55;5.07;;;;;;;1.41;100.00;102767.72;6086394;23;20030;-71
2023/02/14 07:41:05;;;;;;;6.38;5.13;;;;;;;2.10;100.00;102863.91;6089376;23;20033;-71
2023/02/14 07:43:33;;;;;;;4.93;4.53;;;;;;;2.19;100.00;102866.66;6087222;23;20091;-71
2023/02/14 07:46:01;;;;;;;5.35;4.97;;;;;;;2.16;100.00;102845.88;6106723;23;20034;-71
2023/02/14 07:48:28;;;;;;;5.13;4.72;;;;;;;1.39;100.00;102710.78;6116226;23;20186;-71
2023/02/14 07:50:58;;;;;;;6.07;5.57;;;;;;;2.03;100.00;102807.69;6088519;23;20177;-71
2023/02/14 07:53:25;;;;;;;6.45;5.85;;;;;;;2.02;100.00;102799.03;6110680;23;20041;-71
2023/02/14 07:55:54;;;;;;;6.30;5.75;;;;;;;1.97;100.00;102778.22;6090654;23;20898;-71
2023/02/14 07:58:21;;;;;;;15.23;6.45;;;;;;;2.58;100.00;102894.09;6089626;23;20029;-72
2023/02/14 08:00:47;;;;;;;6.55;4.78;;;;;;;2.68;100.00;102882.16;6076727;23;20055;-71
2023/02/14 08:03:15;;;;;;;6.03;5.63;;;;;;;2.04;100.00;102773.16;6073846;23;20261;-70
2023/02/14 08:05:41;;;;;;;8.05;7.45;;;;;;;2.77;100.00;102883.19;6080964;23;20057;-71
2023/02/14 08:08:08;;;;;;;8.30;7.13;;;;;;;2.85;100.00;102880.69;6109267;23;20086;-71
2023/02/14 08:10:35;;;;;;;6.82;5.28;;;;;;;1.33;100.00;102606.34;6086891;23;20074;-71
2023/02/14 08:13:02;;;;;;;8.20;6.13;;;;;;;2.99;100.00;102880.91;6112592;23;20085;-71
2023/02/14 08:18:29;;;;;;;7.30;6.68;;;;;;;2.74;100.00;102807.06;6081812;23;20103;-72
2023/02/14 08:20:56;;;;;;;5.70;5.30;;;;;;;3.25;100.00;102888.16;6076216;23;20512;-71
2023/02/14 08:23:23;;;;;;;7.65;5.80;;;;;;;2.98;100.00;102848.03;6085366;23;20155;-72
2023/02/14 08:25:51;;;;;;;11.15;7.05;;;;;;;3.49;100.00;102887.59;6082819;23;20514;-71
2023/02/14 08:28:18;;;;;;;9.52;6.38;;;;;;;3.54;100.00;102894.59;6114333;23;20093;-71
2023/02/14 08:30:47;;;;;;;9.07;7.38;;;;;;;2.83;100.00;102749.25;6084431;23;20441;-70
2023/02/14 08:33:14;;;;;;;7.25;6.60;;;;;;;3.51;100.00;102871.22;6099254;23;20480;-71
2023/02/14 08:35:41;;;;;;;7.10;6.38;;;;;;;3.63;100.00;102875.69;6082317;23;20026;-69
2023/02/14 08:38:07;;;;;;;6.30;5.80;;;;;;;3.86;100.00;102901.03;6108998;23;20025;-70
2023/02/14 08:40:35;;;;;;;6.40;5.82;;;;;;;3.69;100.00;102849.78;6083814;23;20093;-69
2023/02/14 08:43:03;;;;;;;8.05;6.40;;;;;;;3.98;100.00;102886.44;6085132;23;20412;-70
2023/02/14 08:45:30;;;;;;;8.68;6.32;;;;;;;3.66;100.00;102808.19;6106939;23;20091;-69
2023/02/14 08:48:15;;;;;;;8.13;6.90;;;;;;;3.91;100.00;102829.22;6081929;23;20017;-69
2023/02/14 08:50:41;;;;;;;9.18;7.45;;;;;;;4.35;100.00;102897.22;6108392;23;20653;-69
2023/02/14 08:53:10;;;;;;;7.03;6.28;;;;;;;3.98;100.00;102831.91;6090934;23;20025;-70
2023/02/14 08:55:37;;;;;;;8.75;6.72;;;;;;;4.64;100.00;102916.53;6083094;23;20029;-70
2023/02/14 08:58:04;;;;;;;7.60;6.85;;;;;;;4.77;100.00;102906.25;6081852;23;20045;-70
2023/02/14 09:00:32;;;;;;;7.50;6.75;;;;;;;4.85;100.00;102915.81;6110589;23;20032;-70
2023/02/14 09:02:59;;;;;;;12.55;8.43;;;;;;;4.96;100.00;102919.38;6083118;23;20366;-70
2023/02/14 09:05:25;;;;;;;12.70;7.55;;;;;;;4.98;100.00;102923.72;6082799;23;20118;-70
2023/02/14 09:07:54;;;;;;;7.53;6.90;;;;;;;4.94;100.00;102903.75;6029330;23;20041;-69
2023/02/14 09:10:21;;;;;;;8.43;7.25;;;;;;;5.18;100.00;102923.84;6058461;23;20575;-69
2023/02/14 09:12:48;;;;;;;9.57;7.65;;;;;;;5.28;100.00;102918.72;6048353;23;20030;-69
2023/02/14 09:15:14;;;;;;;15.73;8.00;;;;;;;5.25;100.00;102890.06;6039397;23;20524;-71
2023/02/14 09:17:41;;;;;;;11.40;8.15;;;;;;;5.05;100.00;102853.50;6056799;23;20034;-71
2023/02/14 09:20:11;;;;;;;9.52;6.88;;;;;;;5.37;100.00;102893.59;6056412;23;20210;-71
2023/02/14 09:22:38;;;;;;;10.98;7.43;;;;;;;5.15;100.00;102843.16;6058214;23;20034;-69
2023/02/14 09:25:05;;;;;;;13.02;8.23;;;;;;;5.65;100.00;102921.50;6055585;23;20597;-69
2023/02/14 09:27:32;;;;;;;10.20;7.90;;;;;;;5.74;100.00;102905.91;6048209;23;20027;-70
2023/02/14 09:29:58;;;;;;;8.05;7.25;;;;;;;5.79;100.00;102906.78;6051510;23;20383;-69
2023/02/14 09:32:25;;;;;;;9.35;6.82;;;;;;;5.97;100.00;102899.06;6048384;23;20025;-71
2023/02/14 09:40:22;;;;;;;10.50;7.57;;;;;;;6.25;100.00;102879.97;6055188;23;20009;-70
2023/02/14 09:43:15;;;;;;;19.40;7.13;;;;;;;5.01;100.00;102647.03;6078434;23;20056;-70
2023/02/14 09:45:50;;;;;;;10.77;7.68;;;;;;;6.42;100.00;102864.34;6051021;23;20018;-70
2023/02/14 09:48:28;;;;;;;10.90;8.07;;;;;;;6.53;99.73;102867.81;6086234;23;20033;-71
2023/02/14 09:51:06;;;;;;;8.85;7.53;;;;;;;6.25;99.10;102820.88;6032948;23;20437;-70
2023/02/14 09:53:35;;;;;;;8.20;7.40;;;;;;;6.72;97.95;102859.09;6081593;23;20033;-70
2023/02/14 09:56:20;;;;;;;10.00;7.80;;;;;;;6.87;97.98;102863.41;6053089;23;20043;-70
2023/02/14 09:59:01;;;;;;;10.20;9.10;;;;;;;6.96;95.75;102857.34;6088335;23;20223;-70
2023/02/14 10:01:45;;;;;;;9.52;6.78;;;;;;;7.06;94.82;102851.22;6059386;23;20036;-71
2023/02/14 10:04:38;;;;;;;10.25;8.25;;;;;;;7.16;93.08;102839.00;6072843;23;20017;-70
2023/02/14 10:07:23;;;;;;;11.02;8.60;;;;;;;7.31;92.89;102832.84;6092245;23;20415;-70
2023/02/14 10:10:11;;;;;;;12.60;8.68;;;;;;;7.51;91.79;102833.59;6087009;23;20143;-69
2023/02/14 10:12:44;;;;;;;13.48;9.38;;;;;;;7.64;91.23;102823.97;6082256;23;20041;-69
2023/02/14 10:15:19;;;;;;;;;;;;;;;6.55;88.62;102616.50;6064286;23;20021;-69
2023/02/14 10:17:51;;;;;;;13.38;9.43;;;;;;;7.62;86.23;102775.19;6111438;23;20090;-70
2023/02/14 10:20:18;;;;;;;;;;;;;;;7.83;85.78;102784.66;6085704;23;20018;-69
2023/02/14 10:22:53;;;;;;;9.35;7.97;;;;;;;6.66;85.56;102590.38;6057759;23;19922;-71
2023/02/14 10:25:27;;;;;;;19.25;7.53;;;;;;;7.75;84.55;102748.97;6079447;23;20593;-69
2023/02/14 10:27:57;;;;;;;9.32;8.23;;;;;;;8.18;84.36;102779.16;6089619;23;20476;-70
2023/02/14 10:30:24;;;;;;;17.88;10.10;;;;;;;8.24;83.41;102767.75;6083666;23;20054;-71
2023/02/14 10:33:03;;;;;;;10.93;9.25;;;;;;;8.37;81.92;102746.69;6093845;23;20217;-69
2023/02/14 10:35:47;;;;;;;15.02;9.27;;;;;;;8.36;81.62;102744.97;6060840;23;20351;-70
2023/02/14 10:38:22;;;;;;;9.35;7.78;;;;;;;8.50;81.19;102746.59;6083770;23;20028;-70
2023/02/14 10:41:29;;;;;;;9.60;7.97;;;;;;;8.58;79.58;102726.47;6084980;23;20265;-70
2023/02/14 10:44:44;;;;;;;11.15;8.23;;;;;;;8.65;78.94;102715.03;6100266;23;20097;-69
2023/02/14 10:47:38;;;;;;;13.35;7.80;;;;;;;8.71;79.05;102714.94;5933366;23;20090;-70
2023/02/14 10:50:07;;;;;;;9.65;7.95;;;;;;;8.93;78.27;102706.84;5964578;23;20023;-70
2023/02/14 10:52:43;;;;;;;14.13;9.27;;;;;;;9.01;77.66;102697.13;6061430;23;20049;-70
2023/02/14 10:55:13;;;;;;;10.10;9.10;;;;;;;8.70;76.86;102621.59;6061534;23;20463;-69
2023/02/14 10:57:56;;;;;;;13.63;8.73;;;;;;;8.73;75.73;102584.91;6082026;23;20114;-71
2023/02/14 11:00:27;;;;;;;12.98;8.68;;;;;;;8.09;75.01;102486.34;6087041;23;20038;-70
2023/02/14 11:02:59;;;;;;;9.32;7.47;;;;;;;9.41;74.81;102649.38;6086930;23;20030;-70
2023/02/14 11:05:38;;;;;;;9.93;8.40;;;;;;;8.28;74.15;102434.63;6088547;23;20029;-70
2023/02/14 11:08:14;;;;;;;12.60;7.90;;;;;;;9.51;73.65;102624.75;6082234;23;20025;-70
2023/02/14 11:10:41;;;;;;;15.38;8.77;;;;;;;9.55;73.74;102625.56;6111689;23;20327;-70
2023/02/14 11:13:28;;;;;;;11.20;8.25;;;;;;;9.66;73.14;102605.28;6062677;23;20404;-69
2023/02/14 11:15:59;;;;;;;15.82;9.25;;;;;;;9.74;72.26;102594.63;6057557;23;20029;-70
2023/02/14 11:18:34;;;;;;;14.60;7.93;;;;;;;9.99;72.02;102601.16;6096134;23;20033;-70
2023/02/14 11:21:05;;;;;;;8.50;7.38;;;;;;;9.94;71.03;102565.41;6086465;23;20036;-69
2023/02/14 11:23:38;;;;;;;13.27;9.65;;;;;;;10.04;70.53;102560.84;6109992;23;20043;-68
2023/02/14 11:26:08;;;;;;;;;;;;;;;10.17;69.56;102552.69;6086868;23;20053;-69
2023/02/14 11:28:44;;;;;;;8.32;7.55;;;;;;;9.79;69.07;102465.19;6105389;23;20039;-69
2023/02/14 11:31:10;;;;;;;11.73;7.38;;;;;;;10.18;68.47;102525.59;6085992;23;20035;-70
2023/02/14 11:33:41;;;;;;;8.75;7.95;;;;;;;10.24;68.97;102527.19;6057958;23;20128;-70
2023/02/14 11:36:16;;;;;;;11.18;8.27;;;;;;;10.46;68.85;102532.00;6061108;23;20014;-70
2023/02/14 11:38:44;;;;;;;16.35;9.82;;;;;;;10.39;68.63;102486.69;6072435;23;20484;-71
2023/02/14 11:41:45;;;;;;;25.00;22.75;;;;;;;10.93;66.73;102503.78;5961144;23;20536;-67
2023/02/14 11:44:21;;;;;;;11.80;8.82;;;;;;;10.77;65.75;102464.75;6085556;23;20036;-72
2023/02/14 11:46:49;;;;;;;13.95;8.55;;;;;;;10.25;65.39;102375.88;6110206;23;20021;-71
2023/02/14 11:49:33;;;;;;;13.80;8.90;;;;;;;10.53;66.62;102447.00;6089412;23;20619;-72
2023/02/14 11:52:14;;;;;;;14.43;9.98;;;;;;;10.73;66.71;102470.13;6083785;23;20024;-70
2023/02/14 11:54:43;;;;;;;14.38;8.82;;;;;;;10.57;66.17;102383.00;6112560;23;20396;-71
2023/02/14 11:57:30;;;;;;;13.00;8.85;;;;;;;10.63;64.50;102350.50;6090682;23;20322;-71
2023/02/14 12:00:00;;;;;;;10.20;9.15;;;;;;;10.85;64.48;102393.66;6087068;23;20030;-70
2023/02/14 12:02:36;;;;;;;9.30;8.00;;;;;;;10.70;64.67;102341.53;6085398;23;20040;-72
2023/02/14 12:05:26;;;;;;;13.02;9.45;;;;;;;11.39;64.02;102410.59;6089004;23;20037;-71
2023/02/14 12:07:55;;;;;;;12.00;8.40;;;;;;;11.18;63.91;102363.00;6091878;23;20034;-71